Balkan, Kentucky
Current Conditions -  °F | °C
As of 9:55 PM on Sunday 23 Nov 2014 (Local Time) from K1A6 Reporting Station
Overcast Overcast  
Wind Chill: 56°   Ceiling: 3300
Heat Index: 56°   Visibility: 10mi
Dew Point: 52°   Wind: 5mph
Humidity: 86%   Direction: 160°SSE
Pressure: 29.55"   Gusts: NA
Location:  36.7417°N, 83.6911°W
Report Text: K1A6 240255Z AUTO 16004KT 10SM BKN033 OVC038 14/11 A2955 RMK AO2 T01360113
Loading
Personal Weather Stations






























Interactive Weather Map New forecast layout! Learn more

10-Day Weather Forecast

Advertisements
Track Severe Weather on mobile